Terminal Aerodrome Forecast
Issued by NWS

Home | Current Version | Previous Version | Text Only | Print | Product List | Glossary On
Versions: 1 2 3 4 5 6 7 8 9 10 11 12 13
000
FTUS45 KLKN 241737
TAFTPH
TAF
KTPH 241737Z 2418/2518 26008KT P6SM OVC200
     FM242100 32013G23KT P6SM SCT070 OVC150
     FM250200 33023G33KT P6SM BKN100
     FM251100 35008KT P6SM SCT200=

USA.gov is the U.S. government's official web portal to all federal, state and local government web resources and services.